Fiorello Laguardia — WDF2989 — position and weather

sailwx.info

Track history (hours):
 
Tides and Currents Weather Stations Pressure Air Temp Water Temp Dewpoint Dewpoint Depression Visibility Wind Speed Wind Dir Waves Ship Positions

Fiorello Laguardia

Owner: PORT IMPERIAL FERRY, WEEHAWKEN, NJ. More information available from US FCC via Universal Licensing System and Coast Guard Vessel Documentation Center.

Last reported at 2018-Feb-23 23:58 UTC. Time now 2018-Feb-25 15:20 UTC.
Position N 40°46' W 074°01'.

Length 26 m; draft 2 m.

Type: Passenger vessel. MMSI: 367434210.

Date/timePositionNaut miles runAvg speedWind from/ knotsBaromVisibWave heightAir tempDewpointWater temp
2018-Feb-23 23:58N 40°46' W 074°01'4 8.8
2018-Feb-23 23:30N 40°42' W 073°60'3 5.4
2018-Feb-23 23:00N 40°45' W 073°58'2 4.0
2018-Feb-23 22:30N 40°43' W 073°58'1 2.1
2018-Feb-23 22:00N 40°42' W 073°60'3 5.1
2018-Feb-23 21:30N 40°45' W 073°58'3 6.4
2018-Feb-23 21:00N 40°42' W 074°00'5 8.9
2018-Feb-23 20:29N 40°47' W 074°01'0 0.1
2018-Feb-23 15:21N 40°46' W 074°00'411.3
2018-Feb-23 15:01N 40°42' W 073°59'1 2.0
2018-Feb-23 14:30N 40°43' W 073°58'2 3.1
2018-Feb-23 13:59N 40°42' W 073°60'3 5.8
2018-Feb-23 13:30N 40°45' W 073°58'2 4.1
2018-Feb-23 13:00N 40°43' W 073°58'2 3.3
2018-Feb-23 12:30N 40°42' W 074°00'0 0.5
2018-Feb-23 12:00N 40°42' W 074°00'4 8.7
2018-Feb-23 11:30N 40°46' W 074°01'0 0.0
2018-Feb-23 10:59N 40°46' W 074°01'0 0.0
2018-Feb-22 23:56N 40°46' W 074°01'4 9.3
2018-Feb-22 23:30N 40°42' W 073°60'3 5.4
2018-Feb-22 23:00N 40°45' W 073°58'2 4.2
2018-Feb-22 22:30N 40°43' W 073°58'1 2.3
2018-Feb-22 22:00N 40°42' W 073°60'3 5.1
2018-Feb-22 21:29N 40°45' W 073°58'3 6.4
2018-Feb-22 21:01N 40°42' W 074°00'5 9.1
2018-Feb-22 20:30N 40°47' W 074°01'0 0.0
2018-Feb-22 20:00N 40°47' W 074°01'0 0.0
2018-Feb-22 19:29N 40°47' W 074°01'0 0.0
2018-Feb-22 19:00N 40°47' W 074°01'0 0.0
2018-Feb-22 18:30N 40°47' W 074°01'0 0.0
2018-Feb-22 18:00N 40°47' W 074°01'0 0.0
2018-Feb-22 15:28N 40°47' W 074°01'4 9.3
2018-Feb-22 15:00N 40°43' W 073°58'1 1.5
2018-Feb-22 14:30N 40°43' W 073°58'2 3.4
2018-Feb-22 14:00N 40°42' W 073°60'3 5.4
2018-Feb-22 13:30N 40°45' W 073°58'2 4.2
2018-Feb-22 13:00N 40°43' W 073°58'2 3.3
2018-Feb-22 12:30N 40°42' W 074°00'4 8.1
2018-Feb-22 12:00N 40°46' W 074°01'0 0.1
2018-Feb-22 11:30N 40°46' W 074°01'0 0.0
2018-Feb-22 11:00N 40°46' W 074°01'0 0.0
2018-Feb-21 23:59N 40°46' W 074°01'4 8.7
2018-Feb-21 23:31N 40°42' W 073°60'3 5.3
2018-Feb-21 23:00N 40°45' W 073°58'2 4.7
2018-Feb-21 22:30N 40°42' W 073°59'0 0.7
2018-Feb-21 22:00N 40°42' W 073°59'2 4.6
2018-Feb-21 21:29N 40°45' W 073°58'3 6.1
2018-Feb-21 21:01N 40°43' W 074°01'3 0.6
2018-Feb-21 15:28N 40°47' W 074°01'4 9.1
2018-Feb-21 15:00N 40°43' W 073°58'0 0.3
2018-Feb-21 14:30N 40°43' W 073°58'1 2.7
2018-Feb-21 14:00N 40°42' W 073°60'3 5.6
2018-Feb-21 13:30N 40°45' W 073°58'2 4.1
2018-Feb-21 13:00N 40°43' W 073°58'2 3.2
2018-Feb-21 12:30N 40°42' W 074°00'1 3.1
2018-Feb-21 12:01N 40°44' W 074°01'3 5.4
2018-Feb-21 11:30N 40°46' W 074°01'0 0.0
2018-Feb-20 23:55N 40°46' W 074°01'4 9.1
2018-Feb-20 23:30N 40°42' W 073°60'3 5.2
2018-Feb-20 22:59N 40°45' W 073°58'2 4.5
2018-Feb-20 22:30N 40°43' W 073°58'1 2.3
2018-Feb-20 22:00N 40°42' W 073°60'3 5.3
2018-Feb-20 21:30N 40°45' W 073°58'3 6.5
2018-Feb-20 21:00N 40°42' W 074°00'4 0.8
2018-Feb-20 15:30N 40°46' W 074°01'4 8.2
2018-Feb-20 15:00N 40°43' W 073°59'1 1.7
2018-Feb-20 14:30N 40°43' W 073°58'2 3.0
2018-Feb-20 14:00N 40°42' W 073°60'3 5.6
2018-Feb-20 13:30N 40°45' W 073°58'2 3.8
2018-Feb-20 13:00N 40°43' W 073°58'2 3.3
2018-Feb-20 12:31N 40°42' W 074°00'0 0.0
2018-Feb-20 12:01N 40°42' W 074°00'0 0.6
2018-Feb-20 11:30N 40°42' W 074°00'5 9.0
2018-Feb-20 10:59N 40°47' W 074°01'0 0.0
2018-Feb-20 10:30N 40°47' W 074°01'0 0.0
2018-Feb-20 09:59N 40°47' W 074°01'0 0.0
2018-Feb-20 09:30N 40°47' W 074°01'0 0.0
2018-Feb-20 09:00N 40°47' W 074°01'0 0.0
2018-Feb-20 08:29N 40°47' W 074°01'0 0.0
2018-Feb-20 08:00N 40°47' W 074°01'0 0.0
2018-Feb-20 00:00N 40°47' W 074°01'4 8.9
2018-Feb-19 23:30N 40°42' W 073°60'3 5.5
2018-Feb-19 23:00N 40°45' W 073°58'2 4.0
2018-Feb-19 22:30N 40°43' W 073°58'1 1.7
2018-Feb-19 22:00N 40°42' W 073°59'2 5.0
2018-Feb-19 21:30N 40°45' W 073°58'3 6.7
2018-Feb-19 21:00N 40°43' W 074°02'4 7.2
2018-Feb-19 20:30N 40°46' W 074°01'0 0.0
2018-Feb-19 15:27N 40°46' W 074°01'4 9.0
2018-Feb-19 15:00N 40°43' W 073°59'0 0.9
2018-Feb-19 14:30N 40°43' W 073°58'1 2.8
2018-Feb-19 14:00N 40°42' W 073°60'3 5.6
2018-Feb-19 13:30N 40°45' W 073°58'2 4.0
2018-Feb-19 13:00N 40°43' W 073°58'2 3.2
2018-Feb-19 12:30N 40°42' W 074°00'0 0.0
2018-Feb-19 12:00N 40°42' W 074°00'0 0.0
2018-Feb-19 11:30N 40°42' W 074°00'4 8.0
2018-Feb-19 11:00N 40°46' W 074°00'  
2018-Feb-17 00:49N 40°47' W 074°01'310.7
2018-Feb-17 00:30N 40°43' W 074°01'3 5.2
2018-Feb-17 00:00N 40°43' W 073°58'1 1.2
2018-Feb-16 23:30N 40°44' W 073°58'2 4.9
2018-Feb-16 23:00N 40°42' W 074°00'2 4.0
2018-Feb-16 22:30N 40°43' W 073°58'1 1.2
2018-Feb-16 22:01N 40°44' W 073°58'3 5.0
2018-Feb-16 21:30N 40°42' W 074°00'4 7.8
2018-Feb-16 21:00N 40°46' W 074°01'0 0.4
2018-Feb-16 20:30N 40°46' W 074°01'0 0.1
2018-Feb-16 20:00N 40°46' W 074°01'0 0.0
2018-Feb-16 15:24N 40°46' W 074°01'3 7.6
2018-Feb-16 15:00N 40°43' W 074°01'2 5.0
2018-Feb-16 14:30N 40°43' W 073°58'1 2.7
2018-Feb-16 14:01N 40°44' W 073°58'3 5.3
2018-Feb-16 13:30N 40°42' W 073°60'2 3.5
2018-Feb-16 13:00N 40°43' W 073°58'1 1.7
2018-Feb-16 12:31N 40°44' W 073°58'3 5.3
2018-Feb-16 12:00N 40°42' W 074°00'2 3.1
2018-Feb-16 11:30N 40°44' W 074°01'3 5.2
2018-Feb-16 10:59N 40°46' W 074°01'0 0.0
2018-Feb-16 02:45N 40°46' W 074°01'312.9
2018-Feb-16 02:30N 40°43' W 074°01'1 2.4
2018-Feb-16 02:00N 40°44' W 074°02'0 0.0
2018-Feb-16 01:30N 40°44' W 074°02'0 0.0
2018-Feb-16 01:00N 40°44' W 074°02'0 0.0
2018-Feb-16 00:31N 40°44' W 074°02'3 5.7
2018-Feb-16 00:00N 40°43' W 073°58'1 1.5
2018-Feb-15 23:30N 40°44' W 073°58'2 4.8
2018-Feb-15 23:01N 40°42' W 074°00'2 3.9
2018-Feb-15 22:30N 40°43' W 073°58'1 1.2
2018-Feb-15 22:00N 40°44' W 073°58'3 5.1
2018-Feb-15 21:30N 40°42' W 074°00'4 8.1
2018-Feb-15 21:00N 40°46' W 074°01'0 0.6
2018-Feb-15 20:30N 40°47' W 074°01'0 0.0
2018-Feb-15 15:25N 40°47' W 074°01'410.8
2018-Feb-15 15:00N 40°42' W 074°00'2 3.3
2018-Feb-15 14:30N 40°43' W 073°58'1 2.8
2018-Feb-15 13:59N 40°42' W 073°60'3 5.9
2018-Feb-15 13:31N 40°45' W 073°58'2 4.0
2018-Feb-15 13:00N 40°43' W 073°58'2 3.3
2018-Feb-15 12:30N 40°42' W 074°00'0 0.0
2018-Feb-15 12:00N 40°42' W 074°00'4 8.2
2018-Feb-15 11:30N 40°46' W 074°01'0 0.0
2018-Feb-15 11:00N 40°46' W 074°01'0 0.0
2018-Feb-14 23:57N 40°46' W 074°01'4 9.1
2018-Feb-14 23:30N 40°42' W 073°60'3 5.6
2018-Feb-14 23:00N 40°45' W 073°58'2 4.3
2018-Feb-14 22:30N 40°43' W 073°58'1 2.2
2018-Feb-14 22:00N 40°42' W 073°60'3 5.1
2018-Feb-14 21:30N 40°45' W 073°58'2 4.8
2018-Feb-14 21:01N 40°44' W 074°01'3 5.0
2018-Feb-14 20:30N 40°47' W 074°01'0 0.0
2018-Feb-14 15:38N 40°47' W 074°01'0 2.4
2018-Feb-14 15:30N 40°46' W 074°00'4 8.2
2018-Feb-14 15:01N 40°43' W 073°59'1 1.1
2018-Feb-14 14:30N 40°43' W 073°58'1 2.9
2018-Feb-14 14:01N 40°42' W 073°60'3 5.5
2018-Feb-14 13:30N 40°45' W 073°58'2 4.1
2018-Feb-14 13:01N 40°43' W 073°58'2 5.0
2018-Feb-14 12:31N 40°43' W 074°01'1 2.5
2018-Feb-14 12:00N 40°44' W 074°02'2 3.6
2018-Feb-14 11:30N 40°46' W 074°01'1 0.1
2018-Feb-14 00:41N 40°46' W 074°01'314.8
2018-Feb-14 00:31N 40°44' W 074°01'3 5.1
2018-Feb-14 00:00N 40°43' W 073°58'  
Track history (hours):
 
Tides and Currents Weather Stations Pressure Air Temp Water Temp Dewpoint Dewpoint Depression Visibility Wind Speed Wind Dir Waves Ship Positions

Fiorello Laguardia

Owner: PORT IMPERIAL FERRY, WEEHAWKEN, NJ. More information available from US FCC via Universal Licensing System and Coast Guard Vessel Documentation Center.

Last reported at 2018-Feb-23 23:58 UTC. Time now 2018-Feb-25 15:20 UTC.
Position N 40°46' W 074°01'.

Length 26 m; draft 2 m.

Type: Passenger vessel. MMSI: 367434210.

Date/timePositionNaut miles runAvg speedWind from/ knotsBaromVisibWave heightAir tempDewpointWater temp
2018-Feb-23 23:58N 40°46' W 074°01'4 8.8
2018-Feb-23 23:30N 40°42' W 073°60'3 5.4
2018-Feb-23 23:00N 40°45' W 073°58'2 4.0
2018-Feb-23 22:30N 40°43' W 073°58'1 2.1
2018-Feb-23 22:00N 40°42' W 073°60'3 5.1
2018-Feb-23 21:30N 40°45' W 073°58'3 6.4
2018-Feb-23 21:00N 40°42' W 074°00'5 8.9
2018-Feb-23 20:29N 40°47' W 074°01'0 0.1
2018-Feb-23 15:21N 40°46' W 074°00'411.3
2018-Feb-23 15:01N 40°42' W 073°59'1 2.0
2018-Feb-23 14:30N 40°43' W 073°58'2 3.1
2018-Feb-23 13:59N 40°42' W 073°60'3 5.8
2018-Feb-23 13:30N 40°45' W 073°58'2 4.1
2018-Feb-23 13:00N 40°43' W 073°58'2 3.3
2018-Feb-23 12:30N 40°42' W 074°00'0 0.5
2018-Feb-23 12:00N 40°42' W 074°00'4 8.7
2018-Feb-23 11:30N 40°46' W 074°01'0 0.0
2018-Feb-23 10:59N 40°46' W 074°01'0 0.0
2018-Feb-22 23:56N 40°46' W 074°01'4 9.3
2018-Feb-22 23:30N 40°42' W 073°60'3 5.4
2018-Feb-22 23:00N 40°45' W 073°58'2 4.2
2018-Feb-22 22:30N 40°43' W 073°58'1 2.3
2018-Feb-22 22:00N 40°42' W 073°60'3 5.1
2018-Feb-22 21:29N 40°45' W 073°58'3 6.4
2018-Feb-22 21:01N 40°42' W 074°00'5 9.1
2018-Feb-22 20:30N 40°47' W 074°01'0 0.0
2018-Feb-22 20:00N 40°47' W 074°01'0 0.0
2018-Feb-22 19:29N 40°47' W 074°01'0 0.0
2018-Feb-22 19:00N 40°47' W 074°01'0 0.0
2018-Feb-22 18:30N 40°47' W 074°01'0 0.0
2018-Feb-22 18:00N 40°47' W 074°01'0 0.0
2018-Feb-22 15:28N 40°47' W 074°01'4 9.3
2018-Feb-22 15:00N 40°43' W 073°58'1 1.5
2018-Feb-22 14:30N 40°43' W 073°58'2 3.4
2018-Feb-22 14:00N 40°42' W 073°60'3 5.4
2018-Feb-22 13:30N 40°45' W 073°58'2 4.2
2018-Feb-22 13:00N 40°43' W 073°58'2 3.3
2018-Feb-22 12:30N 40°42' W 074°00'4 8.1
2018-Feb-22 12:00N 40°46' W 074°01'0 0.1
2018-Feb-22 11:30N 40°46' W 074°01'0 0.0
2018-Feb-22 11:00N 40°46' W 074°01'0 0.0
2018-Feb-21 23:59N 40°46' W 074°01'4 8.7
2018-Feb-21 23:31N 40°42' W 073°60'3 5.3
2018-Feb-21 23:00N 40°45' W 073°58'2 4.7
2018-Feb-21 22:30N 40°42' W 073°59'0 0.7
2018-Feb-21 22:00N 40°42' W 073°59'2 4.6
2018-Feb-21 21:29N 40°45' W 073°58'3 6.1
2018-Feb-21 21:01N 40°43' W 074°01'3 0.6
2018-Feb-21 15:28N 40°47' W 074°01'4 9.1
2018-Feb-21 15:00N 40°43' W 073°58'0 0.3
2018-Feb-21 14:30N 40°43' W 073°58'1 2.7
2018-Feb-21 14:00N 40°42' W 073°60'3 5.6
2018-Feb-21 13:30N 40°45' W 073°58'2 4.1
2018-Feb-21 13:00N 40°43' W 073°58'2 3.2
2018-Feb-21 12:30N 40°42' W 074°00'1 3.1
2018-Feb-21 12:01N 40°44' W 074°01'3 5.4
2018-Feb-21 11:30N 40°46' W 074°01'0 0.0
2018-Feb-20 23:55N 40°46' W 074°01'4 9.1
2018-Feb-20 23:30N 40°42' W 073°60'3 5.2
2018-Feb-20 22:59N 40°45' W 073°58'2 4.5
2018-Feb-20 22:30N 40°43' W 073°58'1 2.3
2018-Feb-20 22:00N 40°42' W 073°60'3 5.3
2018-Feb-20 21:30N 40°45' W 073°58'3 6.5
2018-Feb-20 21:00N 40°42' W 074°00'4 0.8
2018-Feb-20 15:30N 40°46' W 074°01'4 8.2
2018-Feb-20 15:00N 40°43' W 073°59'1 1.7
2018-Feb-20 14:30N 40°43' W 073°58'2 3.0
2018-Feb-20 14:00N 40°42' W 073°60'3 5.6
2018-Feb-20 13:30N 40°45' W 073°58'2 3.8
2018-Feb-20 13:00N 40°43' W 073°58'2 3.3
2018-Feb-20 12:31N 40°42' W 074°00'0 0.0
2018-Feb-20 12:01N 40°42' W 074°00'0 0.6
2018-Feb-20 11:30N 40°42' W 074°00'5 9.0
2018-Feb-20 10:59N 40°47' W 074°01'0 0.0
2018-Feb-20 10:30N 40°47' W 074°01'0 0.0
2018-Feb-20 09:59N 40°47' W 074°01'0 0.0
2018-Feb-20 09:30N 40°47' W 074°01'0 0.0
2018-Feb-20 09:00N 40°47' W 074°01'0 0.0
2018-Feb-20 08:29N 40°47' W 074°01'0 0.0
2018-Feb-20 08:00N 40°47' W 074°01'0 0.0
2018-Feb-20 00:00N 40°47' W 074°01'4 8.9
2018-Feb-19 23:30N 40°42' W 073°60'3 5.5
2018-Feb-19 23:00N 40°45' W 073°58'2 4.0
2018-Feb-19 22:30N 40°43' W 073°58'1 1.7
2018-Feb-19 22:00N 40°42' W 073°59'2 5.0
2018-Feb-19 21:30N 40°45' W 073°58'3 6.7
2018-Feb-19 21:00N 40°43' W 074°02'4 7.2
2018-Feb-19 20:30N 40°46' W 074°01'0 0.0
2018-Feb-19 15:27N 40°46' W 074°01'4 9.0
2018-Feb-19 15:00N 40°43' W 073°59'0 0.9
2018-Feb-19 14:30N 40°43' W 073°58'1 2.8
2018-Feb-19 14:00N 40°42' W 073°60'3 5.6
2018-Feb-19 13:30N 40°45' W 073°58'2 4.0
2018-Feb-19 13:00N 40°43' W 073°58'2 3.2
2018-Feb-19 12:30N 40°42' W 074°00'0 0.0
2018-Feb-19 12:00N 40°42' W 074°00'0 0.0
2018-Feb-19 11:30N 40°42' W 074°00'4 8.0
2018-Feb-19 11:00N 40°46' W 074°00'  
2018-Feb-17 00:49N 40°47' W 074°01'310.7
2018-Feb-17 00:30N 40°43' W 074°01'3 5.2
2018-Feb-17 00:00N 40°43' W 073°58'1 1.2
2018-Feb-16 23:30N 40°44' W 073°58'2 4.9
2018-Feb-16 23:00N 40°42' W 074°00'2 4.0
2018-Feb-16 22:30N 40°43' W 073°58'1 1.2
2018-Feb-16 22:01N 40°44' W 073°58'3 5.0
2018-Feb-16 21:30N 40°42' W 074°00'4 7.8
2018-Feb-16 21:00N 40°46' W 074°01'0 0.4
2018-Feb-16 20:30N 40°46' W 074°01'0 0.1
2018-Feb-16 20:00N 40°46' W 074°01'0 0.0
2018-Feb-16 15:24N 40°46' W 074°01'3 7.6
2018-Feb-16 15:00N 40°43' W 074°01'2 5.0
2018-Feb-16 14:30N 40°43' W 073°58'1 2.7
2018-Feb-16 14:01N 40°44' W 073°58'3 5.3
2018-Feb-16 13:30N 40°42' W 073°60'2 3.5
2018-Feb-16 13:00N 40°43' W 073°58'1 1.7
2018-Feb-16 12:31N 40°44' W 073°58'3 5.3
2018-Feb-16 12:00N 40°42' W 074°00'2 3.1
2018-Feb-16 11:30N 40°44' W 074°01'3 5.2
2018-Feb-16 10:59N 40°46' W 074°01'0 0.0
2018-Feb-16 02:45N 40°46' W 074°01'312.9
2018-Feb-16 02:30N 40°43' W 074°01'1 2.4
2018-Feb-16 02:00N 40°44' W 074°02'0 0.0
2018-Feb-16 01:30N 40°44' W 074°02'0 0.0
2018-Feb-16 01:00N 40°44' W 074°02'0 0.0
2018-Feb-16 00:31N 40°44' W 074°02'3 5.7
2018-Feb-16 00:00N 40°43' W 073°58'1 1.5
2018-Feb-15 23:30N 40°44' W 073°58'2 4.8
2018-Feb-15 23:01N 40°42' W 074°00'2 3.9
2018-Feb-15 22:30N 40°43' W 073°58'1 1.2
2018-Feb-15 22:00N 40°44' W 073°58'3 5.1
2018-Feb-15 21:30N 40°42' W 074°00'4 8.1
2018-Feb-15 21:00N 40°46' W 074°01'0 0.6
2018-Feb-15 20:30N 40°47' W 074°01'0 0.0
2018-Feb-15 15:25N 40°47' W 074°01'410.8
2018-Feb-15 15:00N 40°42' W 074°00'2 3.3
2018-Feb-15 14:30N 40°43' W 073°58'1 2.8
2018-Feb-15 13:59N 40°42' W 073°60'3 5.9
2018-Feb-15 13:31N 40°45' W 073°58'2 4.0
2018-Feb-15 13:00N 40°43' W 073°58'2 3.3
2018-Feb-15 12:30N 40°42' W 074°00'0 0.0
2018-Feb-15 12:00N 40°42' W 074°00'4 8.2
2018-Feb-15 11:30N 40°46' W 074°01'0 0.0
2018-Feb-15 11:00N 40°46' W 074°01'0 0.0
2018-Feb-14 23:57N 40°46' W 074°01'4 9.1
2018-Feb-14 23:30N 40°42' W 073°60'3 5.6
2018-Feb-14 23:00N 40°45' W 073°58'2 4.3
2018-Feb-14 22:30N 40°43' W 073°58'1 2.2
2018-Feb-14 22:00N 40°42' W 073°60'3 5.1
2018-Feb-14 21:30N 40°45' W 073°58'2 4.8
2018-Feb-14 21:01N 40°44' W 074°01'3 5.0
2018-Feb-14 20:30N 40°47' W 074°01'0 0.0
2018-Feb-14 15:38N 40°47' W 074°01'0 2.4
2018-Feb-14 15:30N 40°46' W 074°00'4 8.2
2018-Feb-14 15:01N 40°43' W 073°59'1 1.1
2018-Feb-14 14:30N 40°43' W 073°58'1 2.9
2018-Feb-14 14:01N 40°42' W 073°60'3 5.5
2018-Feb-14 13:30N 40°45' W 073°58'2 4.1
2018-Feb-14 13:01N 40°43' W 073°58'2 5.0
2018-Feb-14 12:31N 40°43' W 074°01'1 2.5
2018-Feb-14 12:00N 40°44' W 074°02'2 3.6
2018-Feb-14 11:30N 40°46' W 074°01'1 0.1
2018-Feb-14 00:41N 40°46' W 074°01'314.8
2018-Feb-14 00:31N 40°44' W 074°01'3 5.1
2018-Feb-14 00:00N 40°43' W 073°58'  

Dump ship's entire track history